Time;durP1;ratioP1;P1;durP2;ratioP2;P2;SDS_P1;SDS_P2;PMS_P1;PMS_P2;Temp;Humidity;BMP_temperature;BMP_pressure;BME280_temperature;BME280_humidity;BME280_pressure;Samples;Min_cycle;Max_cycle;Signal;HPM_P1;HPM_P2
2024/01/17 00:00:04;;;;;;;10.03;7.33;;;21.10;53.70;;;;;;5091471;28;20438;-70
2024/01/17 00:02:29;;;;;;;11.20;7.83;;;21.10;53.70;;;;;;5091909;28;20407;-70
2024/01/17 00:04:55;;;;;;;11.30;8.10;;;21.10;53.70;;;;;;5091766;28;20548;-70
2024/01/17 00:07:20;;;;;;;11.60;7.70;;;21.10;53.60;;;;;;5091756;28;20204;-70
2024/01/17 00:09:47;;;;;;;11.20;7.20;;;21.10;53.60;;;;;;5091350;28;20212;-70
2024/01/17 00:12:13;;;;;;;11.00;6.63;;;21.10;53.60;;;;;;5091599;28;20205;-69
2024/01/17 00:14:38;;;;;;;10.90;7.37;;;21.10;53.60;;;;;;5091349;28;20435;-69
2024/01/17 00:17:04;;;;;;;12.00;7.00;;;21.10;53.60;;;;;;5091338;28;20189;-69
2024/01/17 00:19:31;;;;;;;8.53;6.27;;;21.10;53.60;;;;;;5092790;28;20201;-70
2024/01/17 00:21:57;;;;;;;10.10;7.10;;;21.10;53.60;;;;;;5077618;28;20193;-69
2024/01/17 00:24:22;;;;;;;7.80;7.00;;;21.10;53.60;;;;;;5095163;28;20455;-69
2024/01/17 00:26:48;;;;;;;10.80;7.40;;;21.10;53.50;;;;;;5076780;28;20754;-69
2024/01/17 00:29:15;;;;;;;14.40;8.00;;;21.10;53.60;;;;;;5095250;28;20880;-69
2024/01/17 00:31:41;;;;;;;10.33;7.80;;;21.10;53.50;;;;;;5094944;28;20170;-69
2024/01/17 00:34:07;;;;;;;13.27;6.80;;;21.10;53.50;;;;;;5095451;28;20490;-69
2024/01/17 00:36:32;;;;;;;11.93;7.40;;;21.10;53.50;;;;;;5094987;28;20234;-69
2024/01/17 00:38:58;;;;;;;9.97;7.10;;;21.10;53.50;;;;;;5095043;28;20196;-69
2024/01/17 00:41:23;;;;;;;9.57;6.87;;;21.00;53.50;;;;;;5094548;28;20173;-70
2024/01/17 00:43:49;;;;;;;12.10;6.27;;;21.10;53.50;;;;;;5094862;28;20349;-69
2024/01/17 00:46:15;;;;;;;8.20;6.90;;;21.10;53.50;;;;;;5094365;28;20166;-69
2024/01/17 00:48:40;;;;;;;9.43;6.33;;;21.00;53.50;;;;;;5094576;28;20201;-69
2024/01/17 00:51:06;;;;;;;9.13;6.67;;;21.00;53.50;;;;;;5076230;28;20184;-69
2024/01/17 00:53:32;;;;;;;9.60;6.30;;;21.00;53.50;;;;;;5094723;28;20246;-69
2024/01/17 00:55:57;;;;;;;9.67;6.33;;;21.00;53.50;;;;;;5094319;28;20574;-69
2024/01/17 00:58:23;;;;;;;10.70;7.63;;;21.00;53.50;;;;;;5094220;28;20244;-69
2024/01/17 01:00:48;;;;;;;10.83;6.40;;;21.00;53.50;;;;;;5094486;28;20173;-70
2024/01/17 01:03:14;;;;;;;9.13;5.60;;;21.00;53.50;;;;;;5094355;28;20209;-69
2024/01/17 01:05:40;;;;;;;8.53;6.10;;;21.00;53.50;;;;;;5075905;28;20193;-69
2024/01/17 01:08:06;;;;;;;12.27;7.00;;;21.00;53.60;;;;;;5094244;28;20166;-69
2024/01/17 01:10:32;;;;;;;10.20;7.17;;;21.00;53.60;;;;;;5094085;28;20994;-69
2024/01/17 01:12:57;;;;;;;10.23;6.23;;;21.00;53.60;;;;;;5094241;28;20614;-69
2024/01/17 01:15:23;;;;;;;9.87;6.20;;;21.00;53.60;;;;;;5094051;28;20177;-68
2024/01/17 01:17:49;;;;;;;9.70;6.33;;;21.00;53.60;;;;;;5093773;28;20272;-69
2024/01/17 01:20:15;;;;;;;11.17;7.20;;;20.90;53.50;;;;;;5093882;28;20189;-68
2024/01/17 01:22:41;;;;;;;8.97;6.37;;;21.00;53.60;;;;;;5094028;28;20226;-68
2024/01/17 01:25:07;;;;;;;10.37;6.03;;;20.90;53.60;;;;;;5093911;28;20447;-69
2024/01/17 01:27:32;;;;;;;9.07;6.33;;;20.90;53.50;;;;;;5094003;28;20177;-69
2024/01/17 01:29:58;;;;;;;9.63;6.50;;;20.90;53.60;;;;;;5093786;28;20428;-70
2024/01/17 01:32:24;;;;;;;10.77;6.67;;;20.90;53.70;;;;;;5092889;28;20964;-71
2024/01/17 01:34:50;;;;;;;9.83;6.97;;;20.90;53.60;;;;;;5093748;28;20655;-69
2024/01/17 01:37:15;;;;;;;9.80;6.80;;;20.90;53.60;;;;;;5093481;28;20453;-70
2024/01/17 01:39:41;;;;;;;8.43;5.80;;;20.90;53.60;;;;;;5093355;28;20675;-69
2024/01/17 01:42:07;;;;;;;10.90;7.13;;;20.90;53.60;;;;;;5093475;28;20178;-70
2024/01/17 01:44:33;;;;;;;10.30;6.43;;;20.90;53.60;;;;;;5093419;28;20197;-69
2024/01/17 01:46:59;;;;;;;9.23;6.20;;;20.90;54.10;;;;;;5093719;28;20414;-70
2024/01/17 01:49:25;;;;;;;9.53;6.80;;;20.90;53.60;;;;;;5093625;28;20232;-70
2024/01/17 01:51:53;;;;;;;7.00;5.53;;;20.90;53.60;;;;;;5093246;28;20416;-69
2024/01/17 01:54:21;;;;;;;10.83;7.77;;;20.90;53.60;;;;;;5093338;28;20421;-70
2024/01/17 01:56:48;;;;;;;9.10;6.53;;;21.00;53.60;;;;;;5093076;28;20407;-69
2024/01/17 01:59:17;;;;;;;9.53;5.83;;;20.90;53.60;;;;;;5093347;28;20478;-68
2024/01/17 02:01:42;;;;;;;7.70;6.30;;;20.90;53.50;;;;;;5093341;28;20415;-69
2024/01/17 02:04:09;;;;;;;12.73;7.57;;;20.90;53.50;;;;;;5092943;28;20924;-68
2024/01/17 02:06:35;;;;;;;7.03;5.20;;;20.90;53.50;;;;;;5093158;28;20507;-68
2024/01/17 02:09:02;;;;;;;8.13;5.63;;;20.90;53.60;;;;;;5093037;28;20455;-68
2024/01/17 02:11:30;;;;;;;8.33;6.07;;;20.90;53.50;;;;;;5093054;28;20400;-68
2024/01/17 02:13:59;;;;;;;9.17;6.43;;;20.90;53.50;;;;;;5093348;28;20427;-69
2024/01/17 02:16:26;;;;;;;10.73;6.60;;;20.90;53.50;;;;;;5092803;28;20502;-69
2024/01/17 02:18:52;;;;;;;9.97;6.70;;;20.90;53.60;;;;;;5092786;28;20527;-69
2024/01/17 02:21:18;;;;;;;7.50;5.50;;;20.90;53.60;;;;;;5074525;28;20549;-69
2024/01/17 02:23:47;;;;;;;8.33;6.00;;;20.90;53.60;;;;;;5093068;28;20499;-69
2024/01/17 02:26:12;;;;;;;7.63;5.80;;;20.90;53.60;;;;;;5092709;28;20435;-68
2024/01/17 02:28:38;;;;;;;9.00;5.63;;;20.90;53.60;;;;;;5092554;28;20984;-69
2024/01/17 02:31:05;;;;;;;8.37;5.63;;;20.90;53.60;;;;;;5074296;28;20178;-69
2024/01/17 02:33:31;;;;;;;7.30;5.27;;;20.90;53.60;;;;;;5092677;28;20184;-69
2024/01/17 02:35:57;;;;;;;9.40;6.20;;;20.80;53.50;;;;;;5092442;28;20937;-70
2024/01/17 02:38:22;;;;;;;7.10;5.70;;;20.80;53.50;;;;;;5092607;28;20435;-69
2024/01/17 02:40:48;;;;;;;8.07;5.40;;;20.80;53.60;;;;;;5092443;28;20166;-69
2024/01/17 02:43:14;;;;;;;6.60;5.47;;;20.80;53.60;;;;;;5092702;28;20227;-68
2024/01/17 02:45:39;;;;;;;10.10;6.73;;;20.80;53.60;;;;;;5092543;28;20246;-69
2024/01/17 02:48:05;;;;;;;8.17;5.33;;;20.80;53.60;;;;;;5074383;28;20909;-70
2024/01/17 02:50:32;;;;;;;7.43;6.03;;;20.80;53.60;;;;;;5092507;28;20198;-70
2024/01/17 02:52:57;;;;;;;8.30;5.90;;;20.80;53.60;;;;;;5092347;28;20193;-69
2024/01/17 02:55:23;;;;;;;8.23;5.83;;;20.80;53.50;;;;;;5092014;28;20477;-69
2024/01/17 02:57:50;;;;;;;9.43;6.10;;;20.80;53.50;;;;;;5092252;28;20172;-70
2024/01/17 03:00:16;;;;;;;7.60;5.10;;;20.80;53.50;;;;;;5092225;28;20185;-69
2024/01/17 03:02:42;;;;;;;9.10;5.83;;;20.80;53.50;;;;;;5092590;28;20473;-70
2024/01/17 03:05:08;;;;;;;7.50;5.60;;;20.80;53.50;;;;;;5092159;28;20856;-69
2024/01/17 03:07:34;;;;;;;6.77;5.30;;;20.80;53.50;;;;;;5092121;28;20176;-69
2024/01/17 03:09:59;;;;;;;6.63;4.70;;;20.80;53.50;;;;;;5092128;28;20510;-69
2024/01/17 03:12:25;;;;;;;8.43;5.90;;;20.80;53.50;;;;;;5092348;28;20172;-69
2024/01/17 03:14:51;;;;;;;7.33;5.07;;;20.80;53.50;;;;;;5091915;28;20531;-70
2024/01/17 03:17:17;;;;;;;9.30;5.83;;;20.80;53.50;;;;;;5091933;28;20189;-69
2024/01/17 03:19:43;;;;;;;9.30;5.60;;;20.80;53.40;;;;;;5091659;28;20258;-70
2024/01/17 03:22:09;;;;;;;7.70;5.10;;;20.80;53.40;;;;;;5092392;28;20992;-69
2024/01/17 03:24:39;;;;;;;6.00;5.07;;;20.90;53.50;;;;;;5091808;28;20451;-68
2024/01/17 03:27:05;;;;;;;7.80;5.07;;;20.90;53.50;;;;;;5091968;28;20406;-70
2024/01/17 03:29:30;;;;;;;7.83;5.27;;;20.90;53.50;;;;;;5091456;28;20917;-70
2024/01/17 03:31:56;;;;;;;6.53;5.30;;;20.90;54.10;;;;;;5091551;28;20262;-69
2024/01/17 03:34:22;;;;;;;7.63;5.67;;;20.90;53.50;;;;;;5091868;28;20177;-70
2024/01/17 03:36:47;;;;;;;7.90;5.77;;;20.90;53.50;;;;;;5091557;28;20257;-68
2024/01/17 03:39:13;;;;;;;9.00;5.60;;;20.90;53.60;;;;;;5091776;28;20314;-69
2024/01/17 03:41:39;;;;;;;7.87;5.30;;;20.80;53.50;;;;;;5091954;28;20678;-70
2024/01/17 03:44:04;;;;;;;7.07;5.27;;;20.90;53.60;;;;;;5091627;28;20212;-68
2024/01/17 03:46:30;;;;;;;7.67;5.50;;;20.80;53.50;;;;;;5091326;28;20528;-69
2024/01/17 03:48:56;;;;;;;7.73;5.17;;;20.80;53.50;;;;;;5073290;28;20242;-69
2024/01/17 03:51:21;;;;;;;5.40;4.60;;;20.80;53.50;;;;;;5091509;28;20408;-70
2024/01/17 03:53:47;;;;;;;6.53;4.70;;;20.80;53.50;;;;;;5091851;28;20777;-69
2024/01/17 03:56:13;;;;;;;7.37;5.50;;;20.80;53.50;;;;;;5095924;28;20177;-70
2024/01/17 03:58:40;;;;;;;9.63;5.50;;;20.80;53.50;;;;;;5095562;28;20186;-69
2024/01/17 04:01:05;;;;;;;7.60;5.33;;;20.80;53.50;;;;;;5096061;28;20411;-70
2024/01/17 04:03:31;;;;;;;6.67;5.20;;;20.80;53.50;;;;;;5095659;28;20403;-67
2024/01/17 04:05:57;;;;;;;6.97;4.83;;;20.80;53.50;;;;;;5095814;28;20192;-70
2024/01/17 04:08:22;;;;;;;6.40;4.70;;;20.80;53.50;;;;;;5095709;28;20169;-69
2024/01/17 04:10:48;;;;;;;8.73;5.40;;;20.80;53.50;;;;;;5095501;28;20162;-69
2024/01/17 04:13:14;;;;;;;7.00;5.10;;;20.80;53.60;;;;;;5095155;28;20272;-70
2024/01/17 04:15:42;;;;;;;7.10;5.50;;;20.80;53.60;;;;;;5095309;28;20218;-69
2024/01/17 04:18:07;;;;;;;6.60;4.60;;;20.80;53.60;;;;;;5094944;28;20178;-70
2024/01/17 04:20:33;;;;;;;9.77;5.43;;;20.80;53.50;;;;;;5095667;28;20457;-69
2024/01/17 04:22:58;;;;;;;7.17;4.67;;;20.80;54.10;;;;;;5095955;28;20223;-69
2024/01/17 04:25:24;;;;;;;6.50;4.87;;;20.80;53.60;;;;;;5095628;28;20197;-70
2024/01/17 04:27:49;;;;;;;5.67;4.20;;;20.80;53.60;;;;;;5095354;28;20181;-70
2024/01/17 04:30:15;;;;;;;5.77;4.20;;;20.70;53.50;;;;;;5095263;28;20190;-69
2024/01/17 04:32:44;;;;;;;5.90;4.40;;;20.80;53.60;;;;;;5094563;28;20699;-69
2024/01/17 04:35:11;;;;;;;6.77;4.97;;;20.80;53.50;;;;;;5094694;28;20177;-70
2024/01/17 04:37:37;;;;;;;5.23;4.60;;;20.80;53.50;;;;;;5094614;28;20423;-69
2024/01/17 04:40:03;;;;;;;5.80;5.20;;;20.80;53.50;;;;;;5094809;28;21338;-68
2024/01/17 04:42:29;;;;;;;6.03;5.20;;;20.80;53.50;;;;;;5094551;28;20446;-70
2024/01/17 04:44:54;;;;;;;7.23;4.80;;;20.80;53.50;;;;;;5094626;28;20447;-69
2024/01/17 04:47:20;;;;;;;6.73;4.20;;;20.80;53.50;;;;;;5094449;28;20649;-69
2024/01/17 04:49:46;;;;;;;5.83;4.20;;;20.80;53.50;;;;;;5076067;28;20189;-70
2024/01/17 04:52:17;;;;;;;5.77;4.30;;;20.80;53.50;;;;;;5094833;28;20166;-70
2024/01/17 04:54:43;;;;;;;6.50;4.07;;;20.80;53.50;;;;;;5094884;28;21095;-69
2024/01/17 04:57:09;;;;;;;8.17;5.10;;;20.80;53.50;;;;;;5094294;28;20510;-70
2024/01/17 04:59:36;;;;;;;6.30;5.00;;;20.80;53.50;;;;;;5075914;28;20201;-69
2024/01/17 05:02:01;;;;;;;4.50;3.87;;;20.80;53.50;;;;;;5094410;28;20403;-69
2024/01/17 05:04:27;;;;;;;5.97;4.37;;;20.80;53.50;;;;;;5075700;28;21008;-70
2024/01/17 05:06:53;;;;;;;5.57;4.03;;;20.80;53.50;;;;;;5093081;28;20215;-69
2024/01/17 05:09:19;;;;;;;6.10;4.07;;;20.80;53.50;;;;;;5094170;28;20196;-69
2024/01/17 05:11:45;;;;;;;7.50;4.57;;;20.80;53.50;;;;;;5094434;28;20180;-69
2024/01/17 05:14:14;;;;;;;6.73;4.70;;;20.80;53.50;;;;;;5093929;28;20184;-68
2024/01/17 05:16:39;;;;;;;7.60;4.43;;;20.80;53.50;;;;;;5093993;28;20478;-70
2024/01/17 05:19:05;;;;;;;6.13;4.60;;;20.80;53.50;;;;;;5093619;28;20960;-69
2024/01/17 05:21:31;;;;;;;6.20;4.17;;;20.80;53.50;;;;;;5094289;28;20166;-71
2024/01/17 05:23:57;;;;;;;7.77;4.67;;;20.80;53.50;;;;;;5093734;28;20205;-69
2024/01/17 05:26:22;;;;;;;6.70;4.73;;;20.80;53.60;;;;;;5075612;28;20170;-69
2024/01/17 05:28:48;;;;;;;6.70;4.40;;;20.80;53.50;;;;;;5075044;28;20694;-70
2024/01/17 05:31:15;;;;;;;6.90;5.57;;;20.70;53.40;;;;;;5094222;28;20181;-70
2024/01/17 05:33:41;;;;;;;7.83;5.67;;;20.80;53.30;;;;;;5094128;28;20169;-67
2024/01/17 05:36:07;;;;;;;8.43;6.73;;;20.70;52.60;;;;;;5093946;28;20453;-70
2024/01/17 05:38:33;;;;;;;10.70;6.43;;;20.70;52.20;;;;;;5093932;28;20408;-68
2024/01/17 05:40:59;;;;;;;8.40;7.10;;;20.70;51.70;;;;;;5089808;28;20438;-69
2024/01/17 05:43:25;;;;;;;7.53;6.67;;;20.60;51.30;;;;;;5083227;28;20182;-69
2024/01/17 05:45:50;;;;;;;6.50;5.83;;;20.60;51.20;;;;;;5090238;28;20459;-69
2024/01/17 05:48:17;;;;;;;9.07;5.80;;;20.60;51.10;;;;;;5093856;28;20169;-70
2024/01/17 05:50:43;;;;;;;7.30;4.73;;;20.60;51.20;;;;;;5093370;28;20180;-69
2024/01/17 05:53:09;;;;;;;5.70;4.80;;;20.60;51.20;;;;;;5093550;28;20917;-69
2024/01/17 05:55:34;;;;;;;6.77;5.07;;;20.60;51.30;;;;;;5094209;28;20494;-69
2024/01/17 05:58:00;;;;;;;6.90;5.40;;;20.60;51.50;;;;;;5093705;28;20177;-69
2024/01/17 06:00:26;;;;;;;5.70;4.40;;;20.60;51.60;;;;;;5093528;28;20208;-69
2024/01/17 06:02:51;;;;;;;4.40;4.00;;;20.60;51.70;;;;;;5086700;28;20542;-70
2024/01/17 06:05:17;;;;;;;5.53;4.53;;;20.60;51.80;;;;;;5090431;28;20573;-67
2024/01/17 06:07:44;;;;;;;5.33;4.70;;;20.60;51.80;;;;;;5093458;28;20168;-69
2024/01/17 06:10:13;;;;;;;7.70;4.10;;;20.50;51.80;;;;;;5093599;28;20243;-69
2024/01/17 06:12:40;;;;;;;5.30;4.10;;;20.50;51.90;;;;;;5093411;28;20477;-68
2024/01/17 06:15:06;;;;;;;7.43;4.00;;;20.60;52.00;;;;;;5094149;28;20431;-67
2024/01/17 06:17:31;;;;;;;6.83;4.57;;;20.50;51.90;;;;;;5093314;28;20877;-69
2024/01/17 06:19:57;;;;;;;7.53;4.20;;;20.60;52.10;;;;;;5093354;28;20475;-70
2024/01/17 06:22:23;;;;;;;5.67;4.20;;;20.60;52.10;;;;;;5094336;28;20181;-68
2024/01/17 06:24:48;;;;;;;5.20;3.77;;;20.60;52.00;;;;;;5094197;28;20197;-69
2024/01/17 06:27:15;;;;;;;4.80;3.60;;;20.60;52.10;;;;;;5093787;28;20656;-68
2024/01/17 06:29:45;;;;;;;4.30;3.70;;;20.60;52.10;;;;;;5094149;28;20193;-69
2024/01/17 06:32:11;;;;;;;4.67;3.93;;;20.60;52.30;;;;;;5093393;28;20404;-69
2024/01/17 06:34:37;;;;;;;4.30;3.80;;;20.60;52.50;;;;;;5093865;28;20906;-69
2024/01/17 06:37:06;;;;;;;4.30;3.70;;;20.60;52.60;;;;;;5094236;28;20415;-69
2024/01/17 06:39:34;;;;;;;4.47;3.47;;;20.60;52.60;;;;;;5093823;28;20599;-68
2024/01/17 06:42:00;;;;;;;5.20;3.87;;;20.60;52.70;;;;;;5094228;28;20452;-67
2024/01/17 06:44:27;;;;;;;5.13;4.30;;;20.70;52.80;;;;;;5093062;28;20494;-69
2024/01/17 06:46:53;;;;;;;4.67;3.73;;;20.70;52.80;;;;;;5093783;28;20193;-67
2024/01/17 06:49:18;;;;;;;7.50;4.20;;;20.70;52.80;;;;;;5092795;28;20476;-69
2024/01/17 06:51:45;;;;;;;4.47;3.70;;;20.70;52.80;;;;;;5093532;28;20170;-69
2024/01/17 06:54:11;;;;;;;5.03;4.00;;;20.80;52.80;;;;;;5093115;28;20185;-69
2024/01/17 06:56:37;;;;;;;3.50;3.20;;;20.80;52.80;;;;;;5093055;28;20416;-69
2024/01/17 06:59:04;;;;;;;4.77;4.20;;;20.80;52.80;;;;;;5092510;28;20189;-68
2024/01/17 07:01:29;;;;;;;4.63;3.80;;;20.80;52.70;;;;;;5092741;28;20412;-69
2024/01/17 07:03:55;;;;;;;6.67;4.00;;;20.80;52.70;;;;;;5092733;28;20858;-69
2024/01/17 07:06:21;;;;;;;3.73;3.33;;;20.80;52.70;;;;;;5092739;28;20226;-69
2024/01/17 07:08:47;;;;;;;3.87;3.47;;;20.90;52.70;;;;;;5092713;28;20695;-69
2024/01/17 07:11:12;;;;;;;4.90;3.50;;;20.90;52.70;;;;;;5092333;28;20162;-69
2024/01/17 07:13:39;;;;;;;4.30;3.90;;;20.90;53.20;;;;;;5091675;28;20696;-67
2024/01/17 07:16:05;;;;;;;4.50;4.10;;;20.90;52.60;;;;;;5093077;28;20185;-70
2024/01/17 07:18:31;;;;;;;5.77;4.10;;;20.90;52.60;;;;;;5092792;28;20429;-69
2024/01/17 07:20:56;;;;;;;3.90;3.17;;;20.90;52.50;;;;;;5092941;28;20412;-69
2024/01/17 07:23:22;;;;;;;5.87;3.67;;;20.90;52.50;;;;;;5093018;28;20173;-69
2024/01/17 07:25:47;;;;;;;3.33;3.03;;;21.00;52.60;;;;;;5092708;28;20572;-68
2024/01/17 07:28:14;;;;;;;5.20;3.67;;;21.00;52.60;;;;;;5074055;28;20178;-69
2024/01/17 07:30:41;;;;;;;4.83;4.33;;;21.00;52.50;;;;;;5092658;28;20198;-69
2024/01/17 07:33:07;;;;;;;5.40;3.57;;;21.00;52.50;;;;;;5092837;28;20408;-70
2024/01/17 07:35:33;;;;;;;4.47;3.60;;;21.00;52.50;;;;;;5092510;28;20485;-68
2024/01/17 07:37:59;;;;;;;4.30;3.87;;;21.00;52.50;;;;;;5092392;28;20644;-67
2024/01/17 07:40:25;;;;;;;3.97;3.40;;;21.00;52.60;;;;;;5074230;28;20247;-69
2024/01/17 07:42:51;;;;;;;4.10;3.40;;;21.00;52.50;;;;;;5092463;28;20416;-70
2024/01/17 07:45:17;;;;;;;3.50;3.20;;;21.00;52.50;;;;;;5092211;28;20198;-67
2024/01/17 07:47:42;;;;;;;4.50;3.30;;;21.00;52.60;;;;;;5092631;28;20411;-69
2024/01/17 07:50:11;;;;;;;4.50;3.97;;;21.00;52.50;;;;;;5092641;28;20193;-69
2024/01/17 07:52:38;;;;;;;4.10;3.33;;;21.00;52.60;;;;;;5092362;28;20170;-70
2024/01/17 07:55:04;;;;;;;5.00;4.00;;;21.00;52.50;;;;;;5092684;28;20418;-68
2024/01/17 07:57:30;;;;;;;4.60;3.47;;;21.00;52.60;;;;;;5091824;28;20411;-69
2024/01/17 07:59:56;;;;;;;4.37;3.40;;;21.00;52.60;;;;;;5091762;28;20466;-67
2024/01/17 08:02:22;;;;;;;5.23;3.60;;;21.00;52.50;;;;;;5073217;28;20451;-69
2024/01/17 08:04:49;;;;;;;4.90;3.80;;;21.00;52.50;;;;;;5091376;28;20197;-67
2024/01/17 08:07:14;;;;;;;4.20;3.80;;;21.00;52.50;;;;;;5091567;28;20441;-68
2024/01/17 08:09:41;;;;;;;5.10;3.90;;;21.00;52.50;;;;;;5091608;28;20850;-69
2024/01/17 08:12:07;;;;;;;6.73;3.90;;;21.00;52.50;;;;;;5073294;28;20173;-68
2024/01/17 08:14:34;;;;;;;3.80;3.37;;;21.10;52.50;;;;;;5091305;28;20956;-67
2024/01/17 08:17:01;;;;;;;3.80;3.40;;;21.00;52.50;;;;;;5091104;28;20513;-67
2024/01/17 08:19:27;;;;;;;3.27;2.97;;;21.00;52.50;;;;;;5091403;28;20436;-67
2024/01/17 08:21:53;;;;;;;3.30;2.90;;;21.00;52.50;;;;;;5091133;28;20407;-67
2024/01/17 08:24:19;;;;;;;3.70;3.03;;;21.00;52.50;;;;;;5091255;28;20443;-69
2024/01/17 08:26:45;;;;;;;4.27;3.70;;;21.00;52.50;;;;;;5091394;28;20418;-68
2024/01/17 08:29:10;;;;;;;3.60;3.13;;;21.00;52.60;;;;;;5091235;28;20269;-69
2024/01/17 08:31:36;;;;;;;3.90;3.40;;;21.00;52.60;;;;;;5091491;28;20173;-66
2024/01/17 08:34:03;;;;;;;4.93;3.27;;;21.00;52.70;;;;;;5091466;28;20189;-68
2024/01/17 08:36:32;;;;;;;3.83;3.53;;;21.10;52.70;;;;;;5091407;28;20166;-69
2024/01/17 08:38:57;;;;;;;4.07;3.30;;;21.10;52.70;;;;;;5091135;28;20439;-67
2024/01/17 08:41:23;;;;;;;3.73;3.10;;;21.10;52.70;;;;;;5094180;28;20403;-69
2024/01/17 08:43:49;;;;;;;5.20;3.30;;;21.10;52.70;;;;;;5095156;28;20174;-68
2024/01/17 08:46:14;;;;;;;3.93;3.00;;;21.10;52.70;;;;;;5094958;28;20510;-68
2024/01/17 08:48:41;;;;;;;3.47;2.97;;;21.10;52.70;;;;;;5095056;28;20189;-67
2024/01/17 08:51:08;;;;;;;4.03;3.23;;;21.10;52.60;;;;;;5094849;28;20315;-68
2024/01/17 08:53:34;;;;;;;3.17;2.60;;;21.10;52.60;;;;;;5094672;28;20871;-68
2024/01/17 08:56:02;;;;;;;3.80;3.17;;;21.10;52.60;;;;;;5094768;28;20412;-67
2024/01/17 08:58:27;;;;;;;4.30;3.50;;;21.10;52.60;;;;;;5094649;28;20411;-69
2024/01/17 09:00:53;;;;;;;3.13;2.80;;;21.10;52.70;;;;;;5094787;28;20451;-69
2024/01/17 09:03:20;;;;;;;3.30;2.73;;;21.10;52.70;;;;;;5094931;28;20539;-69
2024/01/17 09:05:46;;;;;;;3.17;2.87;;;21.10;52.60;;;;;;5094606;28;20451;-68
2024/01/17 09:08:13;;;;;;;4.00;3.27;;;21.10;52.50;;;;;;5094578;28;20507;-67
2024/01/17 09:10:39;;;;;;;4.57;3.53;;;21.10;52.50;;;;;;5094213;28;20272;-67
2024/01/17 09:13:04;;;;;;;3.93;3.47;;;21.10;52.50;;;;;;5094567;28;20503;-69
2024/01/17 09:15:30;;;;;;;4.00;3.07;;;21.10;52.50;;;;;;5094734;28;20178;-67
2024/01/17 09:17:55;;;;;;;4.30;3.90;;;21.10;52.50;;;;;;5094769;28;20185;-68
2024/01/17 09:20:21;;;;;;;3.40;2.60;;;21.10;52.50;;;;;;5094665;28;20197;-66
2024/01/17 09:22:47;;;;;;;5.27;3.50;;;21.10;52.50;;;;;;5095056;28;20204;-68
2024/01/17 09:25:12;;;;;;;3.47;3.17;;;21.10;52.50;;;;;;5094523;28;20197;-67
2024/01/17 09:27:38;;;;;;;3.80;2.40;;;21.10;52.50;;;;;;5094396;28;20166;-67
2024/01/17 09:30:04;;;;;;;4.37;3.07;;;21.10;52.50;;;;;;5094397;28;20188;-69
2024/01/17 09:32:30;;;;;;;3.80;2.90;;;21.10;52.50;;;;;;5094233;28;20246;-69
2024/01/17 09:34:55;;;;;;;3.80;3.20;;;21.10;52.50;;;;;;5094574;28;20981;-66
2024/01/17 09:37:21;;;;;;;4.20;3.27;;;21.10;52.50;;;;;;5094447;28;20196;-68
2024/01/17 09:39:47;;;;;;;3.20;2.63;;;21.10;52.50;;;;;;5094731;28;20196;-67
2024/01/17 09:42:17;;;;;;;3.70;3.30;;;21.10;52.60;;;;;;5094298;28;20181;-67
2024/01/17 09:44:43;;;;;;;3.80;2.77;;;21.00;52.50;;;;;;5094435;28;20190;-68
2024/01/17 09:47:13;;;;;;;4.20;3.57;;;21.00;52.50;;;;;;5094301;28;21008;-68
2024/01/17 09:49:39;;;;;;;3.23;2.93;;;21.10;52.70;;;;;;5094129;28;20570;-68
2024/01/17 09:52:06;;;;;;;2.63;2.40;;;21.00;52.70;;;;;;5093390;28;20411;-68
2024/01/17 09:54:40;;;;;;;3.50;3.00;;;21.10;52.70;;;;;;5093922;28;20419;-67
2024/01/17 09:57:09;;;;;;;3.70;2.60;;;21.10;52.80;;;;;;5094214;28;20407;-68
2024/01/17 09:59:50;;;;;;;3.60;2.63;;;21.10;52.80;;;;;;5094178;28;20427;-66
2024/01/17 10:02:17;;;;;;;3.07;2.47;;;21.10;52.80;;;;;;5093868;28;20933;-68
2024/01/17 10:04:43;;;;;;;3.70;2.60;;;21.10;52.80;;;;;;5094100;28;20452;-69
2024/01/17 10:07:09;;;;;;;3.00;2.70;;;21.10;52.80;;;;;;5093707;28;20404;-68
2024/01/17 10:09:34;;;;;;;3.00;2.47;;;21.10;52.80;;;;;;5093774;28;20192;-69
2024/01/17 10:12:00;;;;;;;3.90;2.67;;;21.10;52.80;;;;;;5093803;28;20258;-69
2024/01/17 10:14:26;;;;;;;3.03;2.73;;;21.10;52.80;;;;;;5093744;28;20173;-68
2024/01/17 10:16:52;;;;;;;3.20;2.83;;;21.10;52.80;;;;;;5093431;28;20435;-68
2024/01/17 10:19:18;;;;;;;3.13;2.50;;;21.10;52.80;;;;;;5093599;28;20189;-69
2024/01/17 10:21:43;;;;;;;2.60;2.27;;;21.10;52.70;;;;;;5093942;28;20241;-67
2024/01/17 10:24:10;;;;;;;3.57;3.10;;;21.10;52.70;;;;;;5093942;28;20209;-67
2024/01/17 10:26:40;;;;;;;3.37;3.00;;;21.10;52.60;;;;;;5093717;28;20165;-69
2024/01/17 10:29:06;;;;;;;4.87;2.63;;;21.10;53.20;;;;;;5093565;28;20423;-67
2024/01/17 10:31:32;;;;;;;6.27;3.07;;;21.10;52.60;;;;;;5093373;28;20413;-66
2024/01/17 10:33:57;;;;;;;3.60;3.13;;;21.10;52.70;;;;;;5075381;28;20174;-67
2024/01/17 10:36:23;;;;;;;2.87;2.60;;;21.10;53.20;;;;;;5093456;28;20282;-69
2024/01/17 10:38:49;;;;;;;4.23;2.80;;;21.10;52.60;;;;;;5093218;28;20190;-69
2024/01/17 10:41:15;;;;;;;2.70;2.47;;;21.10;52.60;;;;;;5094734;28;20509;-68
2024/01/17 10:44:02;;;;;;;2.83;2.50;;;21.10;52.60;;;;;;5095091;28;20166;-69
2024/01/17 10:46:27;;;;;;;3.03;2.40;;;21.10;52.60;;;;;;5093846;28;20403;-69
2024/01/17 10:48:54;;;;;;;2.80;2.50;;;21.00;52.60;;;;;;5093373;28;20416;-69
2024/01/17 10:51:21;;;;;;;3.23;2.70;;;21.00;52.60;;;;;;5092836;28;20252;-68
2024/01/17 10:53:54;;;;;;;3.30;3.00;;;21.00;52.60;;;;;;5093056;28;20407;-69
2024/01/17 10:56:21;;;;;;;3.03;2.67;;;21.10;52.60;;;;;;5093443;28;20484;-69
2024/01/17 10:58:51;;;;;;;3.43;2.50;;;21.10;52.60;;;;;;5092591;28;20498;-69
2024/01/17 11:01:31;;;;;;;2.60;2.30;;;21.00;52.60;;;;;;5092909;28;20810;-69
2024/01/17 11:04:02;;;;;;;2.70;2.33;;;21.00;52.60;;;;;;5092884;28;20466;-68
2024/01/17 11:06:28;;;;;;;2.93;2.40;;;21.00;52.60;;;;;;5093009;28;20809;-67
2024/01/17 11:08:55;;;;;;;3.60;2.47;;;21.00;52.60;;;;;;5093000;28;20466;-69
2024/01/17 11:11:23;;;;;;;2.77;2.20;;;21.00;52.60;;;;;;5092934;28;20412;-67
2024/01/17 11:13:50;;;;;;;3.00;2.70;;;21.00;52.70;;;;;;5092850;28;20981;-67
2024/01/17 11:16:18;;;;;;;2.90;2.50;;;21.00;52.70;;;;;;5092798;28;20412;-69
2024/01/17 11:18:46;;;;;;;2.80;2.50;;;21.00;52.70;;;;;;5092660;28;20451;-67
2024/01/17 11:21:11;;;;;;;2.93;2.63;;;21.00;52.70;;;;;;5092815;28;20461;-69
2024/01/17 11:23:53;;;;;;;2.97;2.67;;;21.00;52.70;;;;;;5092110;28;20400;-69
2024/01/17 11:26:32;;;;;;;4.43;2.67;;;21.00;52.70;;;;;;5091738;28;20173;-69
2024/01/17 11:29:23;;;;;;;3.33;2.37;;;21.00;52.70;;;;;;5073739;28;20518;-68
2024/01/17 11:32:03;;;;;;;2.57;2.30;;;21.00;52.70;;;;;;5091478;28;20415;-69
2024/01/17 11:34:29;;;;;;;3.10;2.80;;;21.00;53.00;;;;;;5091803;28;20958;-69
2024/01/17 11:36:55;;;;;;;2.67;2.47;;;21.00;52.80;;;;;;5073693;28;20795;-68
2024/01/17 11:39:22;;;;;;;2.60;2.20;;;21.00;52.70;;;;;;5092574;28;20412;-69
2024/01/17 11:41:49;;;;;;;2.50;2.20;;;21.00;52.70;;;;;;5092773;28;20648;-68
2024/01/17 11:44:17;;;;;;;3.27;2.00;;;21.00;52.70;;;;;;5093261;28;20542;-68
2024/01/17 11:46:51;;;;;;;2.60;2.40;;;21.00;52.70;;;;;;5074461;28;20404;-67
2024/01/17 11:49:47;;;;;;;3.10;2.60;;;21.00;52.70;;;;;;5092626;28;20411;-69
2024/01/17 11:52:37;;;;;;;2.40;2.20;;;21.00;52.70;;;;;;5091908;28;20412;-67
2024/01/17 11:55:05;;;;;;;2.60;2.30;;;21.00;52.70;;;;;;5092392;28;20387;-67
2024/01/17 11:57:36;;;;;;;3.10;2.43;;;21.00;52.70;;;;;;5092517;28;20494;-68
2024/01/17 12:00:09;;;;;;;2.73;2.43;;;21.00;52.60;;;;;;5092196;28;20439;-69
2024/01/17 12:02:39;;;;;;;3.20;2.30;;;21.00;52.70;;;;;;5092084;28;20431;-69
2024/01/17 12:05:09;;;;;;;2.37;2.17;;;21.00;52.70;;;;;;5092512;28;20458;-68
2024/01/17 12:07:42;;;;;;;2.83;2.47;;;21.00;52.60;;;;;;5091868;28;20416;-68
2024/01/17 12:10:12;;;;;;;3.07;2.30;;;21.00;52.70;;;;;;5092713;28;20427;-67
2024/01/17 12:12:42;;;;;;;3.30;2.77;;;21.00;52.70;;;;;;5092121;28;20409;-69
2024/01/17 12:15:11;;;;;;;3.70;2.40;;;21.00;52.70;;;;;;5092459;28;20914;-68
2024/01/17 12:17:38;;;;;;;3.60;2.90;;;21.00;52.70;;;;;;5094946;28;20541;-68
2024/01/17 12:20:07;;;;;;;3.50;2.73;;;21.00;52.70;;;;;;5095651;28;20973;-67
2024/01/17 12:22:34;;;;;;;3.00;2.33;;;21.00;52.70;;;;;;5095507;28;20411;-67
2024/01/17 12:24:59;;;;;;;3.00;2.70;;;21.00;52.70;;;;;;5095288;28;20600;-68
2024/01/17 12:27:30;;;;;;;3.30;2.40;;;21.00;52.70;;;;;;5095188;28;20409;-69
2024/01/17 12:29:57;;;;;;;2.77;2.27;;;21.00;52.70;;;;;;5076612;28;20193;-69
2024/01/17 12:32:23;;;;;;;3.70;2.50;;;21.00;52.80;;;;;;5094847;28;20820;-68
2024/01/17 12:34:49;;;;;;;2.77;2.50;;;21.00;52.80;;;;;;5095123;28;20442;-68
2024/01/17 12:37:16;;;;;;;3.33;2.40;;;21.00;52.80;;;;;;5076236;28;20415;-69
2024/01/17 12:39:41;;;;;;;4.27;2.70;;;21.00;52.80;;;;;;5095289;28;20973;-69
2024/01/17 12:42:07;;;;;;;3.40;2.77;;;21.00;52.80;;;;;;5094929;28;20408;-70